Time;durP1;ratioP1;P1;durP2;ratioP2;P2;SDS_P1;SDS_P2;PMS_P1;PMS_P2;Temp;Humidity;BMP_temperature;BMP_pressure;BME280_temperature;BME280_humidity;BME280_pressure;Samples;Min_cycle;Max_cycle;Signal;HPM_P1;HPM_P2
2023/09/26 00:00:56;;;;;;;5.75;2.88;;;;;;;;;;5022278;28;20060;-75
2023/09/26 00:03:21;;;;;;;6.18;2.80;;;;;;;;;;5023235;28;20510;-75
2023/09/26 00:05:48;;;;;;;7.07;3.40;;;;;;;;;;5024653;28;20049;-76
2023/09/26 00:08:14;;;;;;;5.70;2.80;;;;;;;;;;5025059;28;20037;-75
2023/09/26 00:10:39;;;;;;;4.45;2.67;;;;;;;;;;5031580;28;20048;-75
2023/09/26 00:13:05;;;;;;;3.80;2.83;;;;;;;;;;5039396;28;20041;-75
2023/09/26 00:15:30;;;;;;;4.97;2.72;;;;;;;;;;5035636;28;20037;-75
2023/09/26 00:17:57;;;;;;;4.55;3.08;;;;;;;;;;5026854;28;20419;-75
2023/09/26 00:20:30;;;;;;;6.22;3.00;;;;;;;;;;5025387;28;20086;-76
2023/09/26 00:22:56;;;;;;;;;;;;;;;;;;5025027;28;20045;-75
2023/09/26 00:25:22;;;;;;;4.55;2.60;;;;;;;;;;5023966;28;20329;-75
2023/09/26 00:27:47;;;;;;;5.15;3.15;;;;;;;;;;5023648;28;20056;-75
2023/09/26 00:30:13;;;;;;;6.13;2.60;;;;;;;;;;5023944;28;20045;-76
2023/09/26 00:32:38;;;;;;;6.75;3.20;;;;;;;;;;5023837;28;20094;-75
2023/09/26 00:35:14;;;;;;;4.57;2.97;;;;;;;;;;5022326;28;20052;-75
2023/09/26 00:37:43;;;;;;;5.00;3.15;;;;;;;;;;5022085;28;20045;-75
2023/09/26 00:40:18;;;;;;;5.07;3.13;;;;;;;;;;5023176;28;20037;-75
2023/09/26 00:42:44;;;;;;;6.43;3.60;;;;;;;;;;5022906;28;20045;-75
2023/09/26 00:45:11;;;;;;;5.93;3.40;;;;;;;;;;5023429;28;20074;-75
2023/09/26 00:47:38;;;;;;;5.15;3.13;;;;;;;;;;5021460;28;20025;-75
2023/09/26 00:50:05;;;;;;;5.03;3.22;;;;;;;;;;5024018;28;20080;-75
2023/09/26 00:52:34;;;;;;;4.25;2.97;;;;;;;;;;5022978;28;20061;-75
2023/09/26 00:55:03;;;;;;;6.60;3.53;;;;;;;;;;5015305;28;20079;-75
2023/09/26 00:57:28;;;;;;;5.78;3.05;;;;;;;;;;5021306;28;20030;-75
2023/09/26 00:59:54;;;;;;;4.63;3.60;;;;;;;;;;5021431;28;20063;-76
2023/09/26 01:02:19;;;;;;;7.20;3.58;;;;;;;;;;5022848;28;20033;-75
2023/09/26 01:04:45;;;;;;;6.07;3.22;;;;;;;;;;5022606;28;20045;-75
2023/09/26 01:07:10;;;;;;;6.55;3.38;;;;;;;;;;5021099;28;20034;-75
2023/09/26 01:09:35;;;;;;;5.13;2.90;;;;;;;;;;5022235;28;20033;-75
2023/09/26 01:12:01;;;;;;;8.07;3.55;;;;;;;;;;5023140;28;20481;-75
2023/09/26 01:14:26;;;;;;;4.78;3.17;;;;;;;;;;5021240;28;20031;-75
2023/09/26 01:16:55;;;;;;;6.65;3.00;;;;;;;;;;5022923;28;20021;-75
2023/09/26 01:19:20;;;;;;;4.85;2.95;;;;;;;;;;5021762;28;20033;-75
2023/09/26 01:21:46;;;;;;;5.68;3.47;;;;;;;;;;5022625;28;20579;-75
2023/09/26 01:24:11;;;;;;;5.30;3.40;;;;;;;;;;5023280;28;20099;-75
2023/09/26 01:26:37;;;;;;;5.10;3.05;;;;;;;;;;5022152;28;20108;-75
2023/09/26 01:29:03;;;;;;;5.45;3.05;;;;;;;;;;5023472;28;20565;-75
2023/09/26 01:31:29;;;;;;;12.63;3.95;;;;;;;;;;5022177;28;20029;-76
2023/09/26 01:33:54;;;;;;;4.28;2.97;;;;;;;;;;5026426;28;20049;-75
2023/09/26 01:36:21;;;;;;;6.38;3.30;;;;;;;;;;5032441;28;20601;-75
2023/09/26 01:38:46;;;;;;;5.10;4.18;;;;;;;;;;5033633;28;20561;-75
2023/09/26 01:41:12;;;;;;;4.32;3.35;;;;;;;;;;5017916;28;20507;-76
2023/09/26 01:43:38;;;;;;;4.90;3.13;;;;;;;;;;5022449;28;20434;-75
2023/09/26 01:46:04;;;;;;;5.57;3.30;;;;;;;;;;5020840;28;20659;-75
2023/09/26 01:48:29;;;;;;;6.60;3.25;;;;;;;;;;5022584;28;20041;-75
2023/09/26 01:50:54;;;;;;;6.55;3.08;;;;;;;;;;5021953;28;20168;-75
2023/09/26 01:53:20;;;;;;;8.98;3.25;;;;;;;;;;5020926;28;20079;-76
2023/09/26 01:55:45;;;;;;;8.23;3.53;;;;;;;;;;5022075;28;20048;-75
2023/09/26 01:58:11;;;;;;;6.10;3.55;;;;;;;;;;5022205;28;20041;-75
2023/09/26 02:00:36;;;;;;;6.70;3.10;;;;;;;;;;5021926;28;20038;-75
2023/09/26 02:03:02;;;;;;;5.32;2.92;;;;;;;;;;5020718;28;20037;-75
2023/09/26 02:05:27;;;;;;;5.13;2.90;;;;;;;;;;5020147;28;20029;-75
2023/09/26 02:07:53;;;;;;;7.38;3.22;;;;;;;;;;5022769;28;20026;-75
2023/09/26 02:10:18;;;;;;;8.77;3.10;;;;;;;;;;5022073;28;20029;-75
2023/09/26 02:12:49;;;;;;;5.95;2.95;;;;;;;;;;5022173;28;20045;-75
2023/09/26 02:15:15;;;;;;;5.47;3.20;;;;;;;;;;5022741;28;20048;-75
2023/09/26 02:17:41;;;;;;;5.63;3.00;;;;;;;;;;5025960;28;20052;-75
2023/09/26 02:20:12;;;;;;;7.18;3.50;;;;;;;;;;5025318;28;20017;-75
2023/09/26 02:22:51;;;;;;;5.75;2.83;;;;;;;;;;5013375;28;20042;-75
2023/09/26 02:25:21;;;;;;;4.93;3.22;;;;;;;;;;5026612;28;20041;-75
2023/09/26 02:27:47;;;;;;;6.38;3.00;;;;;;;;;;5025703;28;20136;-76
2023/09/26 02:30:19;;;;;;;7.00;3.38;;;;;;;;;;5025686;28;20061;-75
2023/09/26 02:32:45;;;;;;;4.60;2.90;;;;;;;;;;5024300;28;20037;-75
2023/09/26 02:35:17;;;;;;;5.18;3.05;;;;;;;;;;5024582;28;20025;-75
2023/09/26 02:37:43;;;;;;;5.55;3.20;;;;;;;;;;5024512;28;20033;-75
2023/09/26 02:40:10;;;;;;;4.45;3.25;;;;;;;;;;5024354;28;20033;-74
2023/09/26 02:42:36;;;;;;;4.47;2.85;;;;;;;;;;5022798;28;20461;-75
2023/09/26 02:45:03;;;;;;;4.63;3.22;;;;;;;;;;5025382;28;20037;-74
2023/09/26 02:47:28;;;;;;;6.60;3.53;;;;;;;;;;5025863;28;20112;-74
2023/09/26 02:49:54;;;;;;;5.88;3.28;;;;;;;;;;5026479;28;20532;-74
2023/09/26 02:52:20;;;;;;;5.47;3.15;;;;;;;;;;5026097;28;20455;-74
2023/09/26 02:54:45;;;;;;;6.15;3.35;;;;;;;;;;5023699;28;20044;-74
2023/09/26 02:57:11;;;;;;;6.20;3.47;;;;;;;;;;5027744;28;20052;-75
2023/09/26 02:59:36;;;;;;;7.78;3.75;;;;;;;;;;5031257;28;20029;-74
2023/09/26 03:02:02;;;;;;;9.10;3.50;;;;;;;;;;5039375;28;20025;-74
2023/09/26 03:04:28;;;;;;;7.13;4.00;;;;;;;;;;5037213;28;20052;-75
2023/09/26 03:06:53;;;;;;;6.05;3.10;;;;;;;;;;5028262;28;20044;-74
2023/09/26 03:09:19;;;;;;;6.65;3.50;;;;;;;;;;5026121;28;20549;-74
2023/09/26 03:11:44;;;;;;;5.82;3.40;;;;;;;;;;5025171;28;20045;-74
2023/09/26 03:14:10;;;;;;;8.27;4.00;;;;;;;;;;5024198;28;20136;-74
2023/09/26 03:16:36;;;;;;;7.45;4.30;;;;;;;;;;5023725;28;20037;-74
2023/09/26 03:19:01;;;;;;;4.55;3.30;;;;;;;;;;5023242;28;20515;-74
2023/09/26 03:21:27;;;;;;;8.23;3.55;;;;;;;;;;5024938;28;20940;-74
2023/09/26 03:23:52;;;;;;;8.27;3.63;;;;;;;;;;5024428;28;20493;-74
2023/09/26 03:26:18;;;;;;;8.73;4.13;;;;;;;;;;5024956;28;20052;-75
2023/09/26 03:28:43;;;;;;;6.68;4.00;;;;;;;;;;5025378;28;20037;-74
2023/09/26 03:31:09;;;;;;;5.45;3.50;;;;;;;;;;5024782;28;20044;-74
2023/09/26 03:33:34;;;;;;;5.00;3.75;;;;;;;;;;5024285;28;20038;-74
2023/09/26 03:36:00;;;;;;;5.10;3.38;;;;;;;;;;5017024;28;20258;-74
2023/09/26 03:38:25;;;;;;;7.00;3.67;;;;;;;;;;5023000;28;20090;-74
2023/09/26 03:41:00;;;;;;;4.90;3.20;;;;;;;;;;5024907;28;20035;-74
2023/09/26 03:43:26;;;;;;;4.80;3.50;;;;;;;;;;5024842;28;20064;-74
2023/09/26 03:45:54;;;;;;;6.03;3.20;;;;;;;;;;5024370;28;20037;-74
2023/09/26 03:48:20;;;;;;;6.30;3.55;;;;;;;;;;5022712;28;20033;-75
2023/09/26 03:50:46;;;;;;;7.75;3.50;;;;;;;;;;5024590;28;20045;-74
2023/09/26 03:53:13;;;;;;;6.63;3.70;;;;;;;;;;5025035;28;20025;-74
2023/09/26 03:55:39;;;;;;;6.65;3.83;;;;;;;;;;5018062;28;20041;-74
2023/09/26 03:58:04;;;;;;;7.25;3.72;;;;;;;;;;5024361;28;20762;-74
2023/09/26 04:00:29;;;;;;;5.15;3.45;;;;;;;;;;5022878;28;20583;-75
2023/09/26 04:02:56;;;;;;;6.57;3.70;;;;;;;;;;5023140;28;20034;-74
2023/09/26 04:05:22;;;;;;;6.28;3.33;;;;;;;;;;5024712;28;20026;-74
2023/09/26 04:07:48;;;;;;;6.80;3.65;;;;;;;;;;5023959;28;20045;-74
2023/09/26 04:10:13;;;;;;;6.97;3.50;;;;;;;;;;5023891;28;20038;-74
2023/09/26 04:12:39;;;;;;;5.93;3.40;;;;;;;;;;5024090;28;20041;-74
2023/09/26 04:15:05;;;;;;;7.32;3.70;;;;;;;;;;5021130;28;20045;-74
2023/09/26 04:17:30;;;;;;;7.00;3.80;;;;;;;;;;5024685;28;20060;-74
2023/09/26 04:19:57;;;;;;;9.20;3.80;;;;;;;;;;5024779;28;20065;-74
2023/09/26 04:22:23;;;;;;;6.60;3.65;;;;;;;;;;5026686;28;20236;-74
2023/09/26 04:24:48;;;;;;;8.30;3.50;;;;;;;;;;5032495;28;20659;-74
2023/09/26 04:27:14;;;;;;;4.40;3.13;;;;;;;;;;5034964;28;20052;-74
2023/09/26 04:29:39;;;;;;;4.63;3.40;;;;;;;;;;5023777;28;20435;-74
2023/09/26 04:32:04;;;;;;;5.38;3.63;;;;;;;;;;5024242;28;20029;-75
2023/09/26 04:34:32;;;;;;;7.70;3.35;;;;;;;;;;5022909;28;20049;-74
2023/09/26 04:36:57;;;;;;;5.55;3.88;;;;;;;;;;5023193;28;20041;-74
2023/09/26 04:39:23;;;;;;;6.15;3.50;;;;;;;;;;5023418;28;20123;-74
2023/09/26 04:41:48;;;;;;;5.20;3.92;;;;;;;;;;5023557;28;20131;-75
2023/09/26 04:44:14;;;;;;;6.70;4.20;;;;;;;;;;5023838;28;20545;-74
2023/09/26 04:46:39;;;;;;;9.63;4.68;;;;;;;;;;5021160;28;20073;-74
2023/09/26 04:49:04;;;;;;;7.78;4.30;;;;;;;;;;5023109;28;20037;-74
2023/09/26 04:51:30;;;;;;;7.95;4.20;;;;;;;;;;5023366;28;20045;-74
2023/09/26 04:53:58;;;;;;;8.93;4.07;;;;;;;;;;5022962;28;20061;-75
2023/09/26 04:56:23;;;;;;;7.43;4.60;;;;;;;;;;5021989;28;20570;-74
2023/09/26 04:58:48;;;;;;;7.47;4.80;;;;;;;;;;5023372;28;20136;-74
2023/09/26 05:01:15;;;;;;;8.02;4.82;;;;;;;;;;5022737;28;20072;-74
2023/09/26 05:03:44;;;;;;;6.43;4.15;;;;;;;;;;5022636;28;20073;-74
2023/09/26 05:06:10;;;;;;;8.43;4.65;;;;;;;;;;5023610;28;20068;-75
2023/09/26 05:08:36;;;;;;;7.03;4.90;;;;;;;;;;5020802;28;20060;-74
2023/09/26 05:11:02;;;;;;;9.73;4.93;;;;;;;;;;5023522;28;20041;-74
2023/09/26 05:13:27;;;;;;;7.50;4.65;;;;;;;;;;5022751;28;20037;-74
2023/09/26 05:15:52;;;;;;;8.30;5.45;;;;;;;;;;5020444;28;20056;-74
2023/09/26 05:18:18;;;;;;;8.65;5.40;;;;;;;;;;5021731;28;20388;-74
2023/09/26 05:20:44;;;;;;;8.23;5.40;;;;;;;;;;5009384;28;20041;-74
2023/09/26 05:23:09;;;;;;;8.85;4.82;;;;;;;;;;5010034;28;20029;-74
2023/09/26 05:25:35;;;;;;;8.77;5.05;;;;;;;;;;5008335;28;20105;-75
2023/09/26 05:28:01;;;;;;;8.65;5.43;;;;;;;;;;5008383;28;20096;-74
2023/09/26 05:30:26;;;;;;;8.05;5.40;;;;;;;;;;5018924;28;20429;-74
2023/09/26 05:32:52;;;;;;;18.13;6.03;;;;;;;;;;5022393;28;20487;-74
2023/09/26 05:35:18;;;;;;;9.38;5.50;;;;;;;;;;5023124;28;20036;-74
2023/09/26 05:37:44;;;;;;;8.43;5.05;;;;;;;;;;5022356;28;20736;-74
2023/09/26 05:40:10;;;;;;;14.10;5.65;;;;;;;;;;5022915;28;20815;-74
2023/09/26 05:42:37;;;;;;;7.82;5.35;;;;;;;;;;5022178;28;20042;-74
2023/09/26 05:45:04;;;;;;;12.02;5.00;;;;;;;;;;5022118;28;20041;-75
2023/09/26 05:47:29;;;;;;;8.02;4.55;;;;;;;;;;5026902;28;20029;-75
2023/09/26 05:49:55;;;;;;;11.02;4.35;;;;;;;;;;5035038;28;20124;-75
2023/09/26 05:52:20;;;;;;;9.60;4.38;;;;;;;;;;5033914;28;20052;-75
2023/09/26 05:54:47;;;;;;;6.55;4.50;;;;;;;;;;5025834;28;20053;-75
2023/09/26 05:57:13;;;;;;;7.57;4.20;;;;;;;;;;5022162;28;20049;-75
2023/09/26 05:59:38;;;;;;;7.53;4.10;;;;;;;;;;5021779;28;20469;-75
2023/09/26 06:02:04;;;;;;;7.30;4.25;;;;;;;;;;5021660;28;20033;-75
2023/09/26 06:04:29;;;;;;;6.50;3.88;;;;;;;;;;5021885;28;20056;-74
2023/09/26 06:06:54;;;;;;;7.35;4.18;;;;;;;;;;5021942;28;20873;-74
2023/09/26 06:09:20;;;;;;;7.25;4.22;;;;;;;;;;5020222;28;20545;-74
2023/09/26 06:11:45;;;;;;;5.88;4.03;;;;;;;;;;5020253;28;20108;-74
2023/09/26 06:14:11;;;;;;;7.82;4.20;;;;;;;;;;5021304;28;20021;-74
2023/09/26 06:16:36;;;;;;;8.05;3.92;;;;;;;;;;5021273;28;20034;-75
2023/09/26 06:19:02;;;;;;;8.18;4.03;;;;;;;;;;5022210;28;20038;-74
2023/09/26 06:21:27;;;;;;;6.70;4.55;;;;;;;;;;5018876;28;20439;-74
2023/09/26 06:23:53;;;;;;;7.72;4.22;;;;;;;;;;5016863;28;20056;-74
2023/09/26 06:26:18;;;;;;;5.82;3.90;;;;;;;;;;5015999;28;20108;-74
2023/09/26 06:28:43;;;;;;;5.78;3.70;;;;;;;;;;5020301;28;20274;-75
2023/09/26 06:31:10;;;;;;;8.45;3.75;;;;;;;;;;5021826;28;20535;-74
2023/09/26 06:33:36;;;;;;;10.35;5.22;;;;;;;;;;5008266;28;20121;-74
2023/09/26 06:36:10;;;;;;;7.10;4.40;;;;;;;;;;5020470;28;20041;-74
2023/09/26 06:38:35;;;;;;;9.25;4.10;;;;;;;;;;5019919;28;20021;-74
2023/09/26 06:41:02;;;;;;;7.68;4.13;;;;;;;;;;5021847;28;20480;-74
2023/09/26 06:43:27;;;;;;;7.10;3.80;;;;;;;;;;5020627;28;20064;-75
2023/09/26 06:45:53;;;;;;;5.50;4.00;;;;;;;;;;5019470;28;20136;-78
2023/09/26 06:48:18;;;;;;;10.55;4.53;;;;;;;;;;5021441;28;20783;-75
2023/09/26 06:50:44;;;;;;;7.28;3.88;;;;;;;;;;5019914;28;20048;-75
2023/09/26 06:53:10;;;;;;;6.38;3.70;;;;;;;;;;5015431;28;20568;-75
2023/09/26 06:55:39;;;;;;;6.47;3.65;;;;;;;;;;5021196;28;20103;-75
2023/09/26 06:58:05;;;;;;;5.55;3.90;;;;;;;;;;5022043;28;20049;-74
2023/09/26 07:00:30;;;;;;;5.45;3.78;;;;;;;;;;5020319;28;20040;-75
2023/09/26 07:02:56;;;;;;;5.95;3.72;;;;;;;;;;5023624;28;20049;-75
2023/09/26 07:05:21;;;;;;;9.63;4.10;;;;;;;;;;5022149;28;20402;-75
2023/09/26 07:07:46;;;;;;;7.47;3.78;;;;;;;;;;5015445;28;20044;-75
2023/09/26 07:10:12;;;;;;;6.75;4.03;;;;;;;;;;5012764;28;20040;-75
2023/09/26 07:12:38;;;;;;;7.63;3.92;;;;;;;;;;5024066;28;20036;-75
2023/09/26 07:15:03;;;;;;;8.02;3.90;;;;;;;;;;5027503;28;20052;-75
2023/09/26 07:17:29;;;;;;;4.68;3.80;;;;;;;;;;5021202;28;20025;-75
2023/09/26 07:19:55;;;;;;;9.07;4.10;;;;;;;;;;5015880;28;20028;-74
2023/09/26 07:22:20;;;;;;;6.15;3.72;;;;;;;;;;5024699;28;20128;-75
2023/09/26 07:24:51;;;;;;;5.38;3.63;;;;;;;;;;5024564;28;20529;-75
2023/09/26 07:27:17;;;;;;;4.97;3.28;;;;;;;;;;5023106;28;20096;-75
2023/09/26 07:29:49;;;;;;;8.38;3.85;;;;;;;;;;5022635;28;20046;-75
2023/09/26 07:32:15;;;;;;;5.82;3.88;;;;;;;;;;5023688;28;20032;-73
2023/09/26 07:34:41;;;;;;;6.70;3.20;;;;;;;;;;5022417;28;20359;-75
2023/09/26 07:37:07;;;;;;;7.32;4.15;;;;;;;;;;5019504;28;20037;-73
2023/09/26 07:39:32;;;;;;;7.85;3.95;;;;;;;;;;5024506;28;20128;-73
2023/09/26 07:41:58;;;;;;;6.72;3.95;;;;;;;;;;5024012;28;20140;-74
2023/09/26 07:44:24;;;;;;;6.90;3.70;;;;;;;;;;5024624;28;20039;-72
2023/09/26 07:46:49;;;;;;;6.82;3.88;;;;;;;;;;5024836;28;20380;-73
2023/09/26 07:49:15;;;;;;;5.82;3.60;;;;;;;;;;5024277;28;20405;-73
2023/09/26 07:51:41;;;;;;;7.82;3.85;;;;;;;;;;5024254;28;20037;-74
2023/09/26 07:54:06;;;;;;;6.53;3.90;;;;;;;;;;5023236;28;20145;-74
2023/09/26 07:56:32;;;;;;;7.43;3.42;;;;;;;;;;5022936;28;20029;-74
2023/09/26 07:58:57;;;;;;;6.53;3.53;;;;;;;;;;5024168;28;20160;-73
2023/09/26 08:01:23;;;;;;;6.90;3.47;;;;;;;;;;5024367;28;20044;-74
2023/09/26 08:03:48;;;;;;;9.32;3.75;;;;;;;;;;5023321;28;20041;-74
2023/09/26 08:06:14;;;;;;;9.50;3.60;;;;;;;;;;5022459;28;20044;-74
2023/09/26 08:08:39;;;;;;;8.40;3.95;;;;;;;;;;5023504;28;20037;-73
2023/09/26 08:11:06;;;;;;;7.88;4.30;;;;;;;;;;5025018;28;20085;-74
2023/09/26 08:13:33;;;;;;;7.53;3.67;;;;;;;;;;5022772;28;20977;-74
2023/09/26 08:15:58;;;;;;;13.85;4.07;;;;;;;;;;5024276;28;20087;-73
2023/09/26 08:18:24;;;;;;;9.80;4.80;;;;;;;;;;5023762;28;20030;-73
2023/09/26 08:20:55;;;;;;;7.28;4.28;;;;;;;;;;5023934;28;20076;-73
2023/09/26 08:23:20;;;;;;;11.65;5.20;;;;;;;;;;5024589;28;20383;-73
2023/09/26 08:25:46;;;;;;;7.25;4.18;;;;;;;;;;5023211;28;20511;-72
2023/09/26 08:28:11;;;;;;;9.13;4.82;;;;;;;;;;5022431;28;20049;-73
2023/09/26 08:30:36;;;;;;;8.88;5.10;;;;;;;;;;5020886;28;20041;-73
2023/09/26 08:33:02;;;;;;;10.93;5.32;;;;;;;;;;5009551;28;20580;-73
2023/09/26 08:35:27;;;;;;;6.72;4.22;;;;;;;;;;5026671;28;20021;-72
2023/09/26 08:37:53;;;;;;;12.15;4.90;;;;;;;;;;5039746;28;20632;-73
2023/09/26 08:40:19;;;;;;;8.07;4.43;;;;;;;;;;5035509;28;20568;-72
2023/09/26 08:42:46;;;;;;;10.27;4.30;;;;;;;;;;5026664;28;20045;-73
2023/09/26 08:45:11;;;;;;;8.15;4.88;;;;;;;;;;5024828;28;20119;-73
2023/09/26 08:47:42;;;;;;;10.25;4.90;;;;;;;;;;5021887;28;20103;-74
2023/09/26 08:50:07;;;;;;;10.45;4.80;;;;;;;;;;5020198;28;20104;-77
2023/09/26 08:52:33;;;;;;;7.65;3.80;;;;;;;;;;5022390;28;20568;-76
2023/09/26 08:54:59;;;;;;;12.20;4.32;;;;;;;;;;5023518;28;20057;-75
2023/09/26 08:57:25;;;;;;;12.30;4.65;;;;;;;;;;5023634;28;20080;-76
2023/09/26 08:59:53;;;;;;;12.45;5.15;;;;;;;;;;5018375;28;20041;-76
2023/09/26 09:02:19;;;;;;;12.05;5.88;;;;;;;;;;5018827;28;20466;-77
2023/09/26 09:04:45;;;;;;;11.25;5.13;;;;;;;;;;5023079;28;20986;-77
2023/09/26 09:07:12;;;;;;;9.48;5.20;;;;;;;;;;5022985;28;20044;-77
2023/09/26 09:09:58;;;;;;;8.73;4.93;;;;;;;;;;5021311;28;20075;-77
2023/09/26 09:12:24;;;;;;;10.60;4.90;;;;;;;;;;5023228;28;20095;-77
2023/09/26 09:14:49;;;;;;;10.55;4.97;;;;;;;;;;5014284;28;20030;-77
2023/09/26 09:17:15;;;;;;;11.77;4.20;;;;;;;;;;5017182;28;20092;-76
2023/09/26 09:19:45;;;;;;;14.35;4.43;;;;;;;;;;5022650;28;20136;-73
2023/09/26 09:22:21;;;;;;;6.88;3.40;;;;;;;;;;5016600;28;20613;-74
2023/09/26 09:24:54;;;;;;;7.20;3.72;;;;;;;;;;5020368;28;20037;-74
2023/09/26 09:27:31;;;;;;;7.75;3.60;;;;;;;;;;5016965;28;20041;-74
2023/09/26 09:30:08;;;;;;;6.00;3.10;;;;;;;;;;5030583;28;20048;-74
2023/09/26 09:32:35;;;;;;;5.20;3.10;;;;;;;;;;5021661;28;20041;-75
2023/09/26 09:35:02;;;;;;;6.72;2.80;;;;;;;;;;5015531;28;20557;-75
2023/09/26 09:37:27;;;;;;;7.93;3.40;;;;;;;;;;5022982;28;20489;-72
2023/09/26 09:39:53;;;;;;;7.22;3.83;;;;;;;;;;5022030;28;20091;-74
2023/09/26 09:42:19;;;;;;;6.90;3.58;;;;;;;;;;5019914;28;20077;-74
2023/09/26 09:44:45;;;;;;;7.72;4.10;;;;;;;;;;5019677;28;20522;-74
2023/09/26 09:47:14;;;;;;;7.55;3.80;;;;;;;;;;5020045;28;20036;-75
2023/09/26 09:49:41;;;;;;;8.20;4.05;;;;;;;;;;5020454;28;20628;-74
2023/09/26 09:52:09;;;;;;;7.72;3.88;;;;;;;;;;5020658;28;20086;-73
2023/09/26 09:54:37;;;;;;;6.28;4.13;;;;;;;;;;5017787;28;20565;-73
2023/09/26 09:57:09;;;;;;;5.72;3.10;;;;;;;;;;5025905;28;20041;-74
2023/09/26 09:59:36;;;;;;;5.05;2.95;;;;;;;;;;5032666;28;20470;-74
2023/09/26 10:02:03;;;;;;;6.57;2.97;;;;;;;;;;5035651;28;21014;-74
2023/09/26 10:04:29;;;;;;;6.55;3.20;;;;;;;;;;5021824;28;20055;-74
2023/09/26 10:06:57;;;;;;;4.78;2.80;;;;;;;;;;5021787;28;20041;-73
2023/09/26 10:09:23;;;;;;;3.95;2.58;;;;;;;;;;5020604;28;20045;-74
2023/09/26 10:11:52;;;;;;;5.90;2.83;;;;;;;;;;5020237;28;20416;-73
2023/09/26 10:14:22;;;;;;;5.50;2.55;;;;;;;;;;5019197;28;20033;-74
2023/09/26 10:16:49;;;;;;;8.35;2.80;;;;;;;;;;5020114;28;20101;-75
2023/09/26 10:19:16;;;;;;;5.75;2.70;;;;;;;;;;5019797;28;20190;-75
2023/09/26 10:21:41;;;;;;;4.47;2.42;;;;;;;;;;5021439;28;20416;-75
2023/09/26 10:24:10;;;;;;;3.38;2.40;;;;;;;;;;5020937;28;20045;-75
2023/09/26 10:26:45;;;;;;;2.72;2.40;;;;;;;;;;5021373;28;20029;-74
2023/09/26 10:29:14;;;;;;;7.20;2.55;;;;;;;;;;5019994;28;20106;-74
2023/09/26 10:31:41;;;;;;;3.35;2.28;;;;;;;;;;5021566;28;20053;-75
2023/09/26 10:34:07;;;;;;;3.35;2.45;;;;;;;;;;5021078;28;20041;-75
2023/09/26 10:36:34;;;;;;;3.70;2.50;;;;;;;;;;5021865;28;20056;-75
2023/09/26 10:39:07;;;;;;;4.43;2.60;;;;;;;;;;5025063;28;20046;-75
2023/09/26 10:41:33;;;;;;;6.70;2.75;;;;;;;;;;5024549;28;20053;-74
2023/09/26 10:43:58;;;;;;;8.73;3.10;;;;;;;;;;5025427;28;20056;-75
2023/09/26 10:46:25;;;;;;;4.05;2.50;;;;;;;;;;5024937;28;20085;-75
2023/09/26 10:48:50;;;;;;;5.38;2.53;;;;;;;;;;5021607;28;20064;-75
2023/09/26 10:51:17;;;;;;;5.22;2.40;;;;;;;;;;5024662;28;20060;-75
2023/09/26 10:53:44;;;;;;;5.28;2.70;;;;;;;;;;5023485;28;20060;-77
2023/09/26 10:56:09;;;;;;;4.47;2.50;;;;;;;;;;5021860;28;20032;-75
2023/09/26 10:58:35;;;;;;;5.15;2.35;;;;;;;;;;5021373;28;20041;-75
2023/09/26 11:01:01;;;;;;;4.20;2.40;;;;;;;;;;5014070;28;20140;-74
2023/09/26 11:03:28;;;;;;;4.68;2.67;;;;;;;;;;5018479;28;20033;-75
2023/09/26 11:05:55;;;;;;;4.60;2.47;;;;;;;;;;5011453;28;20093;-75
2023/09/26 11:08:22;;;;;;;6.00;2.63;;;;;;;;;;5023289;28;20029;-74
2023/09/26 11:10:50;;;;;;;3.92;2.22;;;;;;;;;;5024035;28;20064;-75
2023/09/26 11:13:17;;;;;;;6.03;2.95;;;;;;;;;;5019009;28;20045;-74
2023/09/26 11:15:45;;;;;;;3.42;2.35;;;;;;;;;;5016424;28;20045;-75
2023/09/26 11:18:12;;;;;;;3.95;2.42;;;;;;;;;;5025718;28;20518;-74
2023/09/26 11:20:39;;;;;;;3.22;2.15;;;;;;;;;;5015678;28;20032;-75
2023/09/26 11:23:04;;;;;;;3.90;2.53;;;;;;;;;;5035239;28;20033;-75
2023/09/26 11:25:31;;;;;;;5.97;2.75;;;;;;;;;;5034631;28;20038;-75
2023/09/26 11:27:56;;;;;;;5.30;2.67;;;;;;;;;;5024014;28;20057;-75
2023/09/26 11:30:22;;;;;;;4.70;2.88;;;;;;;;;;5026479;28;20529;-75
2023/09/26 11:32:50;;;;;;;10.90;4.13;;;;;;;;;;5025461;28;20030;-74
2023/09/26 11:35:19;;;;;;;4.55;2.67;;;;;;;;;;5024128;28;20033;-75
2023/09/26 11:37:52;;;;;;;4.22;2.42;;;;;;;;;;5024743;28;20033;-75
2023/09/26 11:40:26;;;;;;;4.40;2.97;;;;;;;;;;5023113;28;20037;-75
2023/09/26 11:42:55;;;;;;;5.88;2.20;;;;;;;;;;5022119;28;20038;-75
2023/09/26 11:45:29;;;;;;;6.30;2.15;;;;;;;;;;5021317;28;20029;-75
2023/09/26 11:47:56;;;;;;;3.22;2.30;;;;;;;;;;5011247;28;20049;-75
2023/09/26 11:50:22;;;;;;;6.03;2.20;;;;;;;;;;5018149;28;20052;-75
2023/09/26 11:52:48;;;;;;;6.15;2.40;;;;;;;;;;5023041;28;20065;-75
2023/09/26 11:55:18;;;;;;;2.97;2.30;;;;;;;;;;5022044;28;20041;-75
2023/09/26 11:57:48;;;;;;;2.78;1.98;;;;;;;;;;5023555;28;20057;-75
2023/09/26 12:00:18;;;;;;;3.38;2.10;;;;;;;;;;5016333;28;20033;-75
2023/09/26 12:02:44;;;;;;;3.13;2.30;;;;;;;;;;5010601;28;20052;-74
2023/09/26 12:05:13;;;;;;;3.80;2.30;;;;;;;;;;5024113;28;20029;-75
2023/09/26 12:07:39;;;;;;;4.50;2.10;;;;;;;;;;5023152;28;20410;-73
2023/09/26 12:10:06;;;;;;;3.40;2.40;;;;;;;;;;5021407;28;20415;-73
2023/09/26 12:12:31;;;;;;;3.80;2.53;;;;;;;;;;5022366;28;20558;-73
2023/09/26 12:15:20;;;;;;;3.38;2.25;;;;;;;;;;5023161;28;20072;-73
2023/09/26 12:17:47;;;;;;;3.33;2.28;;;;;;;;;;5017900;28;20038;-73
2023/09/26 12:20:17;;;;;;;2.60;2.20;;;;;;;;;;5009419;28;20877;-73
2023/09/26 12:22:43;;;;;;;4.88;2.20;;;;;;;;;;5014301;28;20507;-73
2023/09/26 12:25:08;;;;;;;7.75;2.97;;;;;;;;;;5013250;28;20041;-73
2023/09/26 12:27:34;;;;;;;22.02;2.90;;;;;;;;;;5016267;28;20057;-73
2023/09/26 12:29:59;;;;;;;3.20;2.22;;;;;;;;;;5016666;28;20041;-73
2023/09/26 12:32:24;;;;;;;3.15;2.00;;;;;;;;;;5023585;28;20025;-73
2023/09/26 12:34:50;;;;;;;3.40;2.20;;;;;;;;;;5015244;28;20840;-73
2023/09/26 12:37:15;;;;;;;4.05;2.08;;;;;;;;;;5010864;28;20112;-73
2023/09/26 12:39:40;;;;;;;3.45;2.00;;;;;;;;;;5017021;28;20050;-73
2023/09/26 12:42:06;;;;;;;4.53;2.22;;;;;;;;;;5015470;28;20044;-73
2023/09/26 12:44:36;;;;;;;2.60;1.92;;;;;;;;;;5012305;28;20025;-73
2023/09/26 12:47:01;;;;;;;3.42;1.90;;;;;;;;;;5012487;28;20033;-73
2023/09/26 12:49:27;;;;;;;2.85;1.80;;;;;;;;;;5024862;28;20037;-73
2023/09/26 12:51:52;;;;;;;3.40;1.92;;;;;;;;;;5023608;28;20069;-73
2023/09/26 12:54:18;;;;;;;3.75;2.38;;;;;;;;;;5019184;28;20693;-73
2023/09/26 12:56:43;;;;;;;3.25;1.88;;;;;;;;;;5021682;28;20123;-73
2023/09/26 12:59:08;;;;;;;4.13;2.13;;;;;;;;;;5021617;28;20699;-73
2023/09/26 13:01:34;;;;;;;3.60;1.73;;;;;;;;;;5019717;28;20547;-73
2023/09/26 13:03:59;;;;;;;4.95;2.00;;;;;;;;;;5019860;28;20038;-73
2023/09/26 13:06:25;;;;;;;3.28;1.80;;;;;;;;;;5022421;28;20743;-73
2023/09/26 13:08:50;;;;;;;2.50;1.75;;;;;;;;;;5019618;28;20119;-73
2023/09/26 13:11:15;;;;;;;8.25;3.75;;;;;;;;;;5023156;28;20055;-73
2023/09/26 13:13:41;;;;;;;3.10;2.00;;;;;;;;;;5022499;28;20446;-73
2023/09/26 13:16:07;;;;;;;3.70;2.15;;;;;;;;;;5022639;28;20029;-73
2023/09/26 13:18:33;;;;;;;5.35;1.80;;;;;;;;;;5013889;28;20037;-73
2023/09/26 13:20:58;;;;;;;3.45;2.00;;;;;;;;;;5021953;28;20106;-73
2023/09/26 13:23:23;;;;;;;5.45;2.40;;;;;;;;;;5021752;28;20036;-73
2023/09/26 13:25:50;;;;;;;4.30;2.13;;;;;;;;;;5018547;28;20493;-73
2023/09/26 13:28:15;;;;;;;2.72;2.00;;;;;;;;;;5008185;28;20038;-73
2023/09/26 13:30:41;;;;;;;3.03;2.20;;;;;;;;;;5019482;28;20044;-73
2023/09/26 13:33:06;;;;;;;5.57;2.33;;;;;;;;;;5021564;28;20038;-73
2023/09/26 13:35:32;;;;;;;4.13;2.05;;;;;;;;;;5022123;28;20388;-73
2023/09/26 13:37:57;;;;;;;3.65;2.00;;;;;;;;;;5022607;28;20559;-73
2023/09/26 13:40:23;;;;;;;5.10;2.00;;;;;;;;;;5022039;28;20041;-73
2023/09/26 13:42:49;;;;;;;3.40;2.10;;;;;;;;;;5018176;28;20045;-73
2023/09/26 13:45:15;;;;;;;4.13;2.20;;;;;;;;;;5016498;28;20083;-73
2023/09/26 13:47:40;;;;;;;2.40;1.92;;;;;;;;;;5020289;28;20594;-73
2023/09/26 13:50:06;;;;;;;3.65;2.13;;;;;;;;;;5022298;28;20112;-73
2023/09/26 13:52:31;;;;;;;4.82;2.20;;;;;;;;;;5021469;28;20068;-73
2023/09/26 13:54:57;;;;;;;5.10;1.95;;;;;;;;;;5020587;28;20043;-73
2023/09/26 13:57:23;;;;;;;3.92;1.92;;;;;;;;;;5021703;28;20758;-73
2023/09/26 13:59:50;;;;;;;4.78;2.10;;;;;;;;;;5021609;28;20507;-73
2023/09/26 14:02:15;;;;;;;6.13;2.10;;;;;;;;;;5013467;28;20128;-75
2023/09/26 14:04:42;;;;;;;4.38;1.90;;;;;;;;;;5022211;28;20040;-75
2023/09/26 14:07:09;;;;;;;4.82;2.15;;;;;;;;;;5021613;28;20100;-75
2023/09/26 14:09:35;;;;;;;3.50;2.15;;;;;;;;;;5024082;28;20162;-74
2023/09/26 14:12:03;;;;;;;2.72;1.90;;;;;;;;;;5032715;28;20037;-73
2023/09/26 14:14:29;;;;;;;8.00;2.30;;;;;;;;;;5025589;28;20022;-72
2023/09/26 14:16:54;;;;;;;4.68;2.03;;;;;;;;;;5019858;28;20154;-72
2023/09/26 14:19:19;;;;;;;5.22;2.00;;;;;;;;;;5025819;28;20045;-72
2023/09/26 14:21:45;;;;;;;5.22;2.20;;;;;;;;;;5022358;28;20112;-72
2023/09/26 14:24:10;;;;;;;2.88;1.77;;;;;;;;;;5016937;28;20465;-73
2023/09/26 14:26:36;;;;;;;10.85;2.97;;;;;;;;;;5013282;28;20061;-72
2023/09/26 14:29:01;;;;;;;5.07;1.98;;;;;;;;;;5015948;28;20036;-72
2023/09/26 14:31:27;;;;;;;3.80;2.10;;;;;;;;;;5016494;28;20037;-73
2023/09/26 14:33:53;;;;;;;4.35;2.35;;;;;;;;;;5018423;28;20503;-73
2023/09/26 14:36:18;;;;;;;4.68;2.35;;;;;;;;;;5016435;28;20095;-73
2023/09/26 14:38:44;;;;;;;5.07;1.98;;;;;;;;;;5016314;28;20410;-72